Time;durP1;ratioP1;P1;durP2;ratioP2;P2;SDS_P1;SDS_P2;PMS_P1;PMS_P2;Temp;Humidity;BMP_temperature;BMP_pressure;BME280_temperature;BME280_humidity;BME280_pressure;Samples;Min_cycle;Max_cycle;Signal;HPM_P1;HPM_P2
2023/06/11 00:00:50;;;;;;;4.77;4.33;;;;;;;;;;5106201;28;20277;-75
2023/06/11 00:03:20;;;;;;;6.80;4.93;;;;;;;;;;5108471;28;20195;-75
2023/06/11 00:05:48;;;;;;;6.10;4.07;;;;;;;;;;5114093;28;20196;-75
2023/06/11 00:08:14;;;;;;;5.40;4.90;;;;;;;;;;5098005;28;20612;-75
2023/06/11 00:10:41;;;;;;;7.60;4.87;;;;;;;;;;5093435;28;20647;-75
2023/06/11 00:13:08;;;;;;;4.60;4.17;;;;;;;;;;5106734;28;20286;-76
2023/06/11 00:15:34;;;;;;;5.33;4.60;;;;;;;;;;5093603;28;20200;-75
2023/06/11 00:18:04;;;;;;;6.40;4.97;;;;;;;;;;5110181;28;20203;-75
2023/06/11 00:20:32;;;;;;;4.83;4.43;;;;;;;;;;5102389;28;20239;-76
2023/06/11 00:22:59;;;;;;;5.27;4.40;;;;;;;;;;5106890;28;20207;-75
2023/06/11 00:25:26;;;;;;;4.70;4.30;;;;;;;;;;5104590;28;20228;-76
2023/06/11 00:27:52;;;;;;;7.53;5.30;;;;;;;;;;5113243;28;20211;-76
2023/06/11 00:30:19;;;;;;;4.70;4.20;;;;;;;;;;5113413;28;20227;-75
2023/06/11 00:32:46;;;;;;;5.03;4.53;;;;;;;;;;5107860;28;21020;-75
2023/06/11 00:35:14;;;;;;;5.50;4.80;;;;;;;;;;5104860;28;20203;-75
2023/06/11 00:37:42;;;;;;;5.03;3.87;;;;;;;;;;5099062;28;20261;-75
2023/06/11 00:40:09;;;;;;;4.80;4.40;;;;;;;;;;5113021;28;20230;-75
2023/06/11 00:42:36;;;;;;;4.90;3.70;;;;;;;;;;5106966;28;20196;-76
2023/06/11 00:45:03;;;;;;;12.47;5.27;;;;;;;;;;5105146;28;20718;-76
2023/06/11 00:47:30;;;;;;;5.63;4.37;;;;;;;;;;5112317;28;20243;-75
2023/06/11 00:49:57;;;;;;;9.30;4.83;;;;;;;;;;5099947;28;20200;-75
2023/06/11 00:52:25;;;;;;;5.20;4.80;;;;;;;;;;5111876;28;20202;-76
2023/06/11 00:54:53;;;;;;;4.60;3.97;;;;;;;;;;5112831;28;20196;-76
2023/06/11 00:57:22;;;;;;;5.10;4.30;;;;;;;;;;5112586;28;20222;-75
2023/06/11 00:59:50;;;;;;;7.63;4.87;;;;;;;;;;5098735;28;20257;-75
2023/06/11 01:02:21;;;;;;;7.07;4.30;;;;;;;;;;5100139;28;20312;-75
2023/06/11 01:04:48;;;;;;;5.13;4.37;;;;;;;;;;5112560;28;20708;-75
2023/06/11 01:07:16;;;;;;;7.57;4.90;;;;;;;;;;5103576;28;20200;-75
2023/06/11 01:09:45;;;;;;;4.70;4.30;;;;;;;;;;5104977;28;20211;-75
2023/06/11 01:12:13;;;;;;;5.87;4.83;;;;;;;;;;5092291;28;20228;-76
2023/06/11 01:14:39;;;;;;;6.47;4.20;;;;;;;;;;5091932;28;20294;-76
2023/06/11 01:17:08;;;;;;;5.20;4.63;;;;;;;;;;5091945;28;20258;-76
2023/06/11 01:20:11;;;;;;;6.97;4.80;;;;;;;;;;5109169;28;20652;-75
2023/06/11 01:23:13;;;;;;;4.47;4.10;;;;;;;;;;5110703;28;20256;-75
2023/06/11 01:25:48;;;;;;;4.87;4.47;;;;;;;;;;5088780;28;20207;-76
2023/06/11 01:28:17;;;;;;;5.03;4.53;;;;;;;;;;5091941;28;20334;-76
2023/06/11 01:30:48;;;;;;;4.87;4.30;;;;;;;;;;5093419;28;20307;-76
2023/06/11 01:33:15;;;;;;;5.93;4.67;;;;;;;;;;5102412;28;20226;-76
2023/06/11 01:35:42;;;;;;;7.77;4.47;;;;;;;;;;5107366;28;20568;-76
2023/06/11 01:38:09;;;;;;;6.13;4.43;;;;;;;;;;5102582;28;20560;-75
2023/06/11 01:40:36;;;;;;;5.00;4.50;;;;;;;;;;5108602;28;20651;-75
2023/06/11 01:43:03;;;;;;;5.97;4.70;;;;;;;;;;5102082;28;20556;-75
2023/06/11 01:45:34;;;;;;;4.50;3.73;;;;;;;;;;5091462;28;20200;-76
2023/06/11 01:48:01;;;;;;;5.90;5.30;;;;;;;;;;5102513;28;20227;-75
2023/06/11 01:50:27;;;;;;;4.73;4.30;;;;;;;;;;5093548;28;20755;-76
2023/06/11 01:52:55;;;;;;;4.80;4.33;;;;;;;;;;5102594;28;20200;-75
2023/06/11 01:55:22;;;;;;;4.60;4.30;;;;;;;;;;5093407;28;20200;-75
2023/06/11 01:57:49;;;;;;;5.70;4.50;;;;;;;;;;5103037;28;20203;-75
2023/06/11 02:00:16;;;;;;;5.23;4.63;;;;;;;;;;5093461;28;20552;-75
2023/06/11 02:02:49;;;;;;;6.07;4.60;;;;;;;;;;5102996;28;20208;-75
2023/06/11 02:05:16;;;;;;;6.73;3.77;;;;;;;;;;5104950;28;20196;-75
2023/06/11 02:07:42;;;;;;;7.43;4.67;;;;;;;;;;5103977;28;20195;-75
2023/06/11 02:10:10;;;;;;;5.70;4.47;;;;;;;;;;5097804;28;20264;-75
2023/06/11 02:12:36;;;;;;;4.80;4.40;;;;;;;;;;5098105;28;20200;-75
2023/06/11 02:15:05;;;;;;;6.53;5.07;;;;;;;;;;5091183;28;20675;-75
2023/06/11 02:17:32;;;;;;;6.77;5.20;;;;;;;;;;5104485;28;20700;-75
2023/06/11 02:20:00;;;;;;;5.00;4.50;;;;;;;;;;5097267;28;20196;-75
2023/06/11 02:22:26;;;;;;;4.97;4.47;;;;;;;;;;5110806;28;20256;-75
2023/06/11 02:24:53;;;;;;;6.20;4.53;;;;;;;;;;5091156;28;20200;-75
2023/06/11 02:27:20;;;;;;;6.30;4.50;;;;;;;;;;5104306;28;20204;-75
2023/06/11 02:29:46;;;;;;;5.27;4.77;;;;;;;;;;5090851;28;20200;-75
2023/06/11 02:32:13;;;;;;;5.10;4.57;;;;;;;;;;5104798;28;20646;-75
2023/06/11 02:34:40;;;;;;;5.17;4.57;;;;;;;;;;5110914;28;20199;-75
2023/06/11 02:37:09;;;;;;;4.63;4.23;;;;;;;;;;5111177;28;20211;-75
2023/06/11 02:39:35;;;;;;;6.97;5.23;;;;;;;;;;5110891;28;20729;-75
2023/06/11 02:42:02;;;;;;;4.30;3.90;;;;;;;;;;5110857;28;20204;-75
2023/06/11 02:44:29;;;;;;;4.80;4.40;;;;;;;;;;5111182;28;20204;-76
2023/06/11 02:46:56;;;;;;;7.50;4.97;;;;;;;;;;5097132;28;20204;-75
2023/06/11 02:49:23;;;;;;;5.47;4.43;;;;;;;;;;5101966;28;20678;-75
2023/06/11 02:51:49;;;;;;;5.97;4.50;;;;;;;;;;5106544;28;20230;-75
2023/06/11 02:54:17;;;;;;;8.03;4.17;;;;;;;;;;5110945;28;20586;-75
2023/06/11 02:56:44;;;;;;;6.77;4.23;;;;;;;;;;5107894;28;20260;-75
2023/06/11 02:59:11;;;;;;;6.00;4.40;;;;;;;;;;5090689;28;20283;-75
2023/06/11 03:01:38;;;;;;;8.23;5.33;;;;;;;;;;5104287;28;20196;-75
2023/06/11 03:04:05;;;;;;;5.00;4.40;;;;;;;;;;5090564;28;20200;-75
2023/06/11 03:06:32;;;;;;;12.17;4.60;;;;;;;;;;5090561;28;20193;-74
2023/06/11 03:08:59;;;;;;;4.50;4.10;;;;;;;;;;5100977;28;20324;-75
2023/06/11 03:11:27;;;;;;;5.37;4.70;;;;;;;;;;5097460;28;20223;-75
2023/06/11 03:13:54;;;;;;;7.33;4.50;;;;;;;;;;5100072;28;20232;-75
2023/06/11 03:16:21;;;;;;;5.27;4.53;;;;;;;;;;5107361;28;20211;-75
2023/06/11 03:18:47;;;;;;;5.83;5.03;;;;;;;;;;5110613;28;20200;-75
2023/06/11 03:21:14;;;;;;;5.17;4.20;;;;;;;;;;5093865;28;20192;-74
2023/06/11 03:23:41;;;;;;;4.67;4.27;;;;;;;;;;5101199;28;20206;-75
2023/06/11 03:26:08;;;;;;;5.40;4.67;;;;;;;;;;5097023;28;20199;-75
2023/06/11 03:28:36;;;;;;;6.57;4.37;;;;;;;;;;5099832;28;20592;-75
2023/06/11 03:31:03;;;;;;;7.30;4.00;;;;;;;;;;5094534;28;20598;-75
2023/06/11 03:33:29;;;;;;;6.20;4.20;;;;;;;;;;5113062;28;20231;-75
2023/06/11 03:35:56;;;;;;;7.50;4.97;;;;;;;;;;5100593;28;20582;-75
2023/06/11 03:38:23;;;;;;;5.07;4.47;;;;;;;;;;5113820;28;20203;-75
2023/06/11 03:40:51;;;;;;;4.60;4.10;;;;;;;;;;5100278;28;20198;-75
2023/06/11 03:43:17;;;;;;;4.37;3.87;;;;;;;;;;5102393;28;20257;-75
2023/06/11 03:45:45;;;;;;;6.30;4.97;;;;;;;;;;5107571;28;20196;-75
2023/06/11 03:48:12;;;;;;;5.43;4.60;;;;;;;;;;5105664;28;20227;-75
2023/06/11 03:50:39;;;;;;;5.87;4.70;;;;;;;;;;5108728;28;20278;-75
2023/06/11 03:53:06;;;;;;;5.83;4.80;;;;;;;;;;5105084;28;20227;-75
2023/06/11 03:55:32;;;;;;;7.97;5.23;;;;;;;;;;5095183;28;20192;-75
2023/06/11 03:57:59;;;;;;;5.33;4.80;;;;;;;;;;5093399;28;20204;-75
2023/06/11 04:00:26;;;;;;;5.57;4.60;;;;;;;;;;5112951;28;20623;-74
2023/06/11 04:02:54;;;;;;;6.27;4.43;;;;;;;;;;5100854;28;20291;-75
2023/06/11 04:05:21;;;;;;;6.40;4.97;;;;;;;;;;5112642;28;20214;-75
2023/06/11 04:07:48;;;;;;;4.80;4.23;;;;;;;;;;5100923;28;20636;-75
2023/06/11 04:10:15;;;;;;;4.93;4.33;;;;;;;;;;5113376;28;20203;-75
2023/06/11 04:12:41;;;;;;;4.90;4.40;;;;;;;;;;5113277;28;20315;-75
2023/06/11 04:15:09;;;;;;;5.30;4.47;;;;;;;;;;5093351;28;20219;-75
2023/06/11 04:17:35;;;;;;;5.07;4.13;;;;;;;;;;5093059;28;20693;-75
2023/06/11 04:20:08;;;;;;;6.33;4.33;;;;;;;;;;5113319;28;20199;-76
2023/06/11 04:22:34;;;;;;;5.97;4.97;;;;;;;;;;5099488;28;20211;-75
2023/06/11 04:25:01;;;;;;;5.87;4.83;;;;;;;;;;5104873;28;20251;-75
2023/06/11 04:27:28;;;;;;;4.50;4.10;;;;;;;;;;5092835;28;20674;-75
2023/06/11 04:29:56;;;;;;;4.63;4.13;;;;;;;;;;5100790;28;20258;-75
2023/06/11 04:32:26;;;;;;;5.10;4.37;;;;;;;;;;5112253;28;20227;-75
2023/06/11 04:34:56;;;;;;;4.73;4.33;;;;;;;;;;5113305;28;20227;-75
2023/06/11 04:37:24;;;;;;;5.27;4.77;;;;;;;;;;5106616;28;20200;-76
2023/06/11 04:39:51;;;;;;;4.30;4.00;;;;;;;;;;5112671;28;20555;-75
2023/06/11 04:42:19;;;;;;;8.80;5.07;;;;;;;;;;5112925;28;20264;-75
2023/06/11 04:44:47;;;;;;;5.23;3.67;;;;;;;;;;5112162;28;20199;-75
2023/06/11 04:47:14;;;;;;;6.30;5.23;;;;;;;;;;5112948;28;20223;-76
2023/06/11 04:49:44;;;;;;;6.17;4.47;;;;;;;;;;5112305;28;20698;-75
2023/06/11 04:52:11;;;;;;;4.07;3.67;;;;;;;;;;5105505;28;20259;-76
2023/06/11 04:54:41;;;;;;;4.93;4.37;;;;;;;;;;5100218;28;20306;-76
2023/06/11 04:57:08;;;;;;;4.80;4.23;;;;;;;;;;5112756;28;20227;-76
2023/06/11 04:59:35;;;;;;;4.97;4.47;;;;;;;;;;5103880;28;20201;-76
2023/06/11 05:02:02;;;;;;;5.60;4.13;;;;;;;;;;5107376;28;20294;-76
2023/06/11 05:04:29;;;;;;;5.63;3.97;;;;;;;;;;5104061;28;20204;-76
2023/06/11 05:06:57;;;;;;;4.53;4.13;;;;;;;;;;5094635;28;20353;-75
2023/06/11 05:09:24;;;;;;;6.43;4.37;;;;;;;;;;5102828;28;20287;-76
2023/06/11 05:11:55;;;;;;;5.73;4.60;;;;;;;;;;5105618;28;20220;-75
2023/06/11 05:14:22;;;;;;;4.17;3.67;;;;;;;;;;5092139;28;20201;-76
2023/06/11 05:16:50;;;;;;;5.17;4.10;;;;;;;;;;5092207;28;20276;-76
2023/06/11 05:19:17;;;;;;;5.80;4.53;;;;;;;;;;5106273;28;20235;-76
2023/06/11 05:21:44;;;;;;;4.70;4.20;;;;;;;;;;5111918;28;20264;-76
2023/06/11 05:24:19;;;;;;;6.33;4.17;;;;;;;;;;5112184;28;20203;-76
2023/06/11 05:26:45;;;;;;;4.20;3.80;;;;;;;;;;5103280;28;20212;-76
2023/06/11 05:29:13;;;;;;;5.03;4.03;;;;;;;;;;5105196;28;20593;-76
2023/06/11 05:31:40;;;;;;;6.93;3.93;;;;;;;;;;5101136;28;20222;-76
2023/06/11 05:34:07;;;;;;;4.97;4.17;;;;;;;;;;5109264;28;20203;-76
2023/06/11 05:36:34;;;;;;;3.90;3.47;;;;;;;;;;5091668;28;20204;-76
2023/06/11 05:39:00;;;;;;;6.73;4.03;;;;;;;;;;5108240;28;20927;-77
2023/06/11 05:41:27;;;;;;;6.50;4.03;;;;;;;;;;5111589;28;20210;-76
2023/06/11 05:43:54;;;;;;;5.97;4.23;;;;;;;;;;5097381;28;20203;-76
2023/06/11 05:46:24;;;;;;;6.03;4.13;;;;;;;;;;5112015;28;20275;-76
2023/06/11 05:48:50;;;;;;;4.67;4.07;;;;;;;;;;5111488;28;20223;-76
2023/06/11 05:51:17;;;;;;;5.60;3.57;;;;;;;;;;5111455;28;20199;-76
2023/06/11 05:53:44;;;;;;;6.53;3.80;;;;;;;;;;5097593;28;20226;-75
2023/06/11 05:56:11;;;;;;;5.07;3.40;;;;;;;;;;5101333;28;20290;-76
2023/06/11 05:58:38;;;;;;;5.17;4.03;;;;;;;;;;5104663;28;20203;-76
2023/06/11 06:01:06;;;;;;;4.47;4.07;;;;;;;;;;5102545;28;20210;-78
2023/06/11 06:03:34;;;;;;;5.30;3.97;;;;;;;;;;5106718;28;20201;-77
2023/06/11 06:06:02;;;;;;;4.53;4.13;;;;;;;;;;5091153;28;20204;-81
2023/06/11 06:08:29;;;;;;;6.60;4.57;;;;;;;;;;5105155;28;20188;-78
2023/06/11 06:10:56;;;;;;;4.73;3.50;;;;;;;;;;5103783;28;20199;-78
2023/06/11 06:13:28;;;;;;;8.57;4.20;;;;;;;;;;5108803;28;20219;-78
2023/06/11 06:15:54;;;;;;;4.97;3.67;;;;;;;;;;5100423;28;20199;-78
2023/06/11 06:18:21;;;;;;;4.93;3.87;;;;;;;;;;5104689;28;20277;-77
2023/06/11 06:20:49;;;;;;;5.27;3.70;;;;;;;;;;5097458;28;20196;-78
2023/06/11 06:23:16;;;;;;;6.23;4.40;;;;;;;;;;5107737;28;20206;-78
2023/06/11 06:25:43;;;;;;;3.83;3.43;;;;;;;;;;5110142;28;20266;-78
2023/06/11 06:28:10;;;;;;;8.03;4.43;;;;;;;;;;5111616;28;20195;-77
2023/06/11 06:30:38;;;;;;;9.30;7.50;;;;;;;;;;5097284;28;20201;-78
2023/06/11 06:33:05;;;;;;;18.00;10.30;;;;;;;;;;5101854;28;20242;-78
2023/06/11 06:35:32;;;;;;;6.77;4.67;;;;;;;;;;5105218;28;20203;-77
2023/06/11 06:38:00;;;;;;;5.57;4.53;;;;;;;;;;5100704;28;20199;-78
2023/06/11 06:40:27;;;;;;;8.40;4.73;;;;;;;;;;5097714;28;20268;-78
2023/06/11 06:42:54;;;;;;;5.63;4.73;;;;;;;;;;5100997;28;20283;-78
2023/06/11 06:45:21;;;;;;;4.47;3.83;;;;;;;;;;5104223;28;20200;-78
2023/06/11 06:47:48;;;;;;;5.20;4.17;;;;;;;;;;5101347;28;20300;-77
2023/06/11 06:50:15;;;;;;;8.57;4.07;;;;;;;;;;5097116;28;20691;-78
2023/06/11 06:52:41;;;;;;;5.07;3.70;;;;;;;;;;5099876;28;20231;-78
2023/06/11 06:55:10;;;;;;;9.10;3.83;;;;;;;;;;5091017;28;20201;-78
2023/06/11 06:57:37;;;;;;;6.27;3.70;;;;;;;;;;5090179;28;20208;-78
2023/06/11 07:00:05;;;;;;;5.23;3.67;;;;;;;;;;5095539;28;20195;-79
2023/06/11 07:02:32;;;;;;;6.13;4.17;;;;;;;;;;5110783;28;20218;-78
2023/06/11 07:05:00;;;;;;;4.00;3.60;;;;;;;;;;5095759;28;20203;-78
2023/06/11 07:07:27;;;;;;;4.67;3.80;;;;;;;;;;5111708;28;20203;-78
2023/06/11 07:09:53;;;;;;;4.90;3.23;;;;;;;;;;5113663;28;20196;-78
2023/06/11 07:12:22;;;;;;;6.13;3.70;;;;;;;;;;5101197;28;20219;-78
2023/06/11 07:14:48;;;;;;;5.47;3.67;;;;;;;;;;5094157;28;20631;-78
2023/06/11 07:17:15;;;;;;;5.20;3.73;;;;;;;;;;5097294;28;20621;-78
2023/06/11 07:19:42;;;;;;;5.27;4.73;;;;;;;;;;5112953;28;20196;-78
2023/06/11 07:22:09;;;;;;;5.07;4.27;;;;;;;;;;5109598;28;20201;-78
2023/06/11 07:24:36;;;;;;;4.33;3.63;;;;;;;;;;5092426;28;20204;-78
2023/06/11 07:27:03;;;;;;;4.30;3.63;;;;;;;;;;5106010;28;20262;-78
2023/06/11 07:29:32;;;;;;;8.60;3.87;;;;;;;;;;5103642;28;20199;-79
2023/06/11 07:31:58;;;;;;;5.87;3.40;;;;;;;;;;5098985;28;20677;-78
2023/06/11 07:34:25;;;;;;;6.13;3.73;;;;;;;;;;5102995;28;20200;-78
2023/06/11 07:36:52;;;;;;;7.43;3.57;;;;;;;;;;5107671;28;20196;-78
2023/06/11 07:39:19;;;;;;;6.27;4.20;;;;;;;;;;5105379;28;20214;-78
2023/06/11 07:41:46;;;;;;;6.53;4.20;;;;;;;;;;5112304;28;20195;-78
2023/06/11 07:44:12;;;;;;;4.70;3.83;;;;;;;;;;5110068;28;20260;-78
2023/06/11 07:46:41;;;;;;;4.57;4.10;;;;;;;;;;5110962;28;20715;-78
2023/06/11 07:49:08;;;;;;;4.30;3.90;;;;;;;;;;5114114;28;20208;-78
2023/06/11 07:51:35;;;;;;;6.17;3.97;;;;;;;;;;5107060;28;20704;-79
2023/06/11 07:54:02;;;;;;;13.63;4.43;;;;;;;;;;5094226;28;20228;-78
2023/06/11 07:56:30;;;;;;;7.80;3.83;;;;;;;;;;5106573;28;20200;-78
2023/06/11 07:58:57;;;;;;;6.10;3.87;;;;;;;;;;5108219;28;20272;-79
2023/06/11 08:01:26;;;;;;;4.53;4.00;;;;;;;;;;5114139;28;20211;-78
2023/06/11 08:03:54;;;;;;;5.63;3.80;;;;;;;;;;5097937;28;20296;-78
2023/06/11 08:06:22;;;;;;;3.87;3.57;;;;;;;;;;5101467;28;20260;-78
2023/06/11 08:08:49;;;;;;;7.60;4.35;;;;;;;;;;5112659;28;20674;-78
2023/06/11 08:11:15;;;;;;;4.38;4.07;;;;;;;;;;5110266;28;20200;-79
2023/06/11 08:13:42;;;;;;;4.40;3.88;;;;;;;;;;5100452;28;20260;-78
2023/06/11 08:16:09;;;;;;;4.70;3.40;;;;;;;;;;5098301;28;20237;-78
2023/06/11 08:18:36;;;;;;;5.95;3.40;;;;;;;;;;5101787;28;20206;-79
2023/06/11 08:21:05;;;;;;;6.10;3.42;;;;;;;;;;5097977;28;20197;-77
2023/06/11 08:23:34;;;;;;;4.35;3.72;;;;;;;;;;5102373;28;20192;-78
2023/06/11 08:26:01;;;;;;;3.92;3.55;;;;;;;;;;5114008;28;20200;-78
2023/06/11 08:28:31;;;;;;;7.57;3.85;;;;;;;;;;5106935;28;20208;-78
2023/06/11 08:30:59;;;;;;;5.72;3.65;;;;;;;;;;5106400;28;20203;-78
2023/06/11 08:33:26;;;;;;;6.82;3.67;;;;;;;;;;5092959;28;20822;-78
2023/06/11 08:35:53;;;;;;;5.28;3.70;;;;;;;;;;5106657;28;20207;-78
2023/06/11 08:38:21;;;;;;;6.45;3.30;;;;;;;;;;5105799;28;20641;-78
2023/06/11 08:40:48;;;;;;;4.25;3.75;;;;;;;;;;5107496;28;20210;-79
2023/06/11 08:43:14;;;;;;;5.43;4.35;;;;;;;;;;5104841;28;20196;-78
2023/06/11 08:45:41;;;;;;;6.88;4.25;;;;;;;;;;5107198;28;20670;-78
2023/06/11 08:48:09;;;;;;;5.50;3.60;;;;;;;;;;5112711;28;20235;-79
2023/06/11 08:50:36;;;;;;;4.18;3.65;;;;;;;;;;5102026;28;20299;-78
2023/06/11 08:53:04;;;;;;;3.78;3.33;;;;;;;;;;5110392;28;20227;-78
2023/06/11 08:55:33;;;;;;;6.07;3.75;;;;;;;;;;5112869;28;20252;-78
2023/06/11 08:58:01;;;;;;;7.43;3.50;;;;;;;;;;5093938;28;20719;-78
2023/06/11 09:00:28;;;;;;;5.05;3.65;;;;;;;;;;5104543;28;20203;-78
2023/06/11 09:02:55;;;;;;;6.50;3.50;;;;;;;;;;5107014;28;20265;-78
2023/06/11 09:05:22;;;;;;;3.90;3.60;;;;;;;;;;5091927;28;20678;-78
2023/06/11 09:07:50;;;;;;;4.28;3.60;;;;;;;;;;5103744;28;20208;-78
2023/06/11 09:10:18;;;;;;;5.57;3.47;;;;;;;;;;5092335;28;20204;-78
2023/06/11 09:12:47;;;;;;;4.68;3.95;;;;;;;;;;5100433;28;20280;-79
2023/06/11 09:15:14;;;;;;;4.88;3.58;;;;;;;;;;5096970;28;20261;-79
2023/06/11 09:17:44;;;;;;;6.47;4.07;;;;;;;;;;5093272;28;20207;-79
2023/06/11 09:20:12;;;;;;;7.20;4.18;;;;;;;;;;5103764;28;20671;-79
2023/06/11 09:22:40;;;;;;;3.60;3.28;;;;;;;;;;5105286;28;20252;-79
2023/06/11 09:25:16;;;;;;;4.30;3.90;;;;;;;;;;5092301;28;20215;-78
2023/06/11 09:27:43;;;;;;;7.35;5.32;;;;;;;;;;5108172;28;20196;-78
2023/06/11 09:30:15;;;;;;;5.95;4.50;;;;;;;;;;5111801;28;20203;-79
2023/06/11 09:32:43;;;;;;;8.30;4.25;;;;;;;;;;5111947;28;20196;-78
2023/06/11 09:35:11;;;;;;;5.25;3.88;;;;;;;;;;5100855;28;20266;-79
2023/06/11 09:37:45;;;;;;;3.92;3.45;;;;;;;;;;5104938;28;20200;-78
2023/06/11 09:40:15;;;;;;;6.60;4.05;;;;;;;;;;5091793;28;20191;-78
2023/06/11 09:42:44;;;;;;;6.80;3.80;;;;;;;;;;5091838;28;20200;-78
2023/06/11 09:45:16;;;;;;;4.63;3.55;;;;;;;;;;5106016;28;20200;-79
2023/06/11 09:47:45;;;;;;;7.47;3.75;;;;;;;;;;5111383;28;20647;-78
2023/06/11 09:50:13;;;;;;;8.07;3.88;;;;;;;;;;5097820;28;20574;-78
2023/06/11 09:52:39;;;;;;;6.28;4.47;;;;;;;;;;5111878;28;20283;-80
2023/06/11 09:55:09;;;;;;;4.40;3.65;;;;;;;;;;5111532;28;20222;-78
2023/06/11 09:57:37;;;;;;;4.78;3.25;;;;;;;;;;5111551;28;20243;-78
2023/06/11 10:00:09;;;;;;;8.32;4.00;;;;;;;;;;5094140;28;20196;-78
2023/06/11 10:02:38;;;;;;;6.32;3.92;;;;;;;;;;5102545;28;20199;-78
2023/06/11 10:05:06;;;;;;;10.82;4.65;;;;;;;;;;5111993;28;20203;-78
2023/06/11 10:07:47;;;;;;;8.20;4.90;;;;;;;;;;5111571;28;20279;-78
2023/06/11 10:10:19;;;;;;;4.85;4.15;;;;;;;;;;5111321;28;20634;-79
2023/06/11 10:12:49;;;;;;;8.25;5.10;;;;;;;;;;5098111;28;20580;-78
2023/06/11 10:15:17;;;;;;;5.50;4.53;;;;;;;;;;5111926;28;20253;-78
2023/06/11 10:17:48;;;;;;;6.50;4.60;;;;;;;;;;5111040;28;20233;-78
2023/06/11 10:20:19;;;;;;;7.33;3.90;;;;;;;;;;5110447;28;20195;-79
2023/06/11 10:22:53;;;;;;;16.80;5.63;;;;;;;;;;5098179;28;20207;-83
2023/06/11 10:25:23;;;;;;;15.53;6.80;;;;;;;;;;5100253;28;20291;-82
2023/06/11 10:27:59;;;;;;;27.13;21.17;;;;;;;;;;5104395;28;20200;-83
2023/06/11 10:30:26;;;;;;;16.57;8.30;;;;;;;;;;5098187;28;20214;-83
2023/06/11 10:32:56;;;;;;;13.23;4.87;;;;;;;;;;5110090;28;20700;-82
2023/06/11 10:35:50;;;;;;;8.70;4.93;;;;;;;;;;5097977;28;20219;-83
2023/06/11 10:42:09;;;;;;;6.03;4.33;;;;;;;;;;5084717;28;20772;-83
2023/06/11 10:44:53;;;;;;;12.60;6.27;;;;;;;;;;5109236;28;20653;-86
2023/06/11 10:47:25;;;;;;;6.13;4.30;;;;;;;;;;5110008;28;20309;-84
2023/06/11 10:50:31;;;;;;;8.00;3.60;;;;;;;;;;5104553;28;20207;-86
2023/06/11 10:53:04;;;;;;;7.43;3.90;;;;;;;;;;5096238;28;20242;-88
2023/06/11 10:55:52;;;;;;;7.87;4.33;;;;;;;;;;5113551;28;20204;-87
2023/06/11 10:58:21;;;;;;;5.83;4.17;;;;;;;;;;5114177;28;20595;-88
2023/06/11 11:00:52;;;;;;;5.80;4.50;;;;;;;;;;5112351;28;20211;-84
2023/06/11 11:03:21;;;;;;;13.60;4.33;;;;;;;;;;5113491;28;20210;-86
2023/06/11 11:05:48;;;;;;;6.93;4.63;;;;;;;;;;5114619;28;20218;-85
2023/06/11 11:08:17;;;;;;;5.70;3.83;;;;;;;;;;5115403;28;20203;-86
2023/06/11 11:10:43;;;;;;;9.20;4.87;;;;;;;;;;5113671;28;20213;-85
2023/06/11 11:13:10;;;;;;;4.60;3.93;;;;;;;;;;5109965;28;20200;-84
2023/06/11 11:15:38;;;;;;;9.37;4.20;;;;;;;;;;5103352;28;20291;-84
2023/06/11 11:18:05;;;;;;;6.30;4.37;;;;;;;;;;5079924;28;20249;-84
2023/06/11 11:20:33;;;;;;;6.93;4.43;;;;;;;;;;5115074;28;20264;-93
2023/06/11 11:23:00;;;;;;;5.93;3.93;;;;;;;;;;5103361;28;20231;-88
2023/06/11 11:25:30;;;;;;;5.27;4.30;;;;;;;;;;5087875;28;20200;-90
2023/06/11 11:27:57;;;;;;;4.17;3.87;;;;;;;;;;5113716;28;20207;-88
2023/06/11 11:30:28;;;;;;;8.13;3.60;;;;;;;;;;5094129;28;20204;-89
2023/06/11 11:32:57;;;;;;;4.13;3.73;;;;;;;;;;5106434;28;20294;-88
2023/06/11 11:35:26;;;;;;;5.57;3.30;;;;;;;;;;5115188;28;20223;-85
2023/06/11 11:37:54;;;;;;;4.83;3.70;;;;;;;;;;5096633;28;20211;-84
2023/06/11 11:40:22;;;;;;;4.80;4.07;;;;;;;;;;5108739;28;20200;-84
2023/06/11 11:42:54;;;;;;;3.83;3.43;;;;;;;;;;5093606;28;20254;-83
2023/06/11 11:45:24;;;;;;;4.53;3.87;;;;;;;;;;5094408;28;20288;-82
2023/06/11 11:47:52;;;;;;;4.63;3.40;;;;;;;;;;5108408;28;20609;-82
2023/06/11 11:50:21;;;;;;;4.07;3.50;;;;;;;;;;5114455;28;20733;-82
2023/06/11 11:53:02;;;;;;;4.57;2.90;;;;;;;;;;5113627;28;20286;-82
2023/06/11 11:55:32;;;;;;;3.80;3.47;;;;;;;;;;5104215;28;20579;-81
2023/06/11 11:58:08;;;;;;;7.10;4.60;;;;;;;;;;5107472;28;20196;-81
2023/06/11 12:00:37;;;;;;;5.77;4.30;;;;;;;;;;5106460;28;20207;-81
2023/06/11 12:03:08;;;;;;;4.20;3.80;;;;;;;;;;5113452;28;20192;-82
2023/06/11 12:05:35;;;;;;;4.70;3.60;;;;;;;;;;5101053;28;20236;-84
2023/06/11 12:08:03;;;;;;;3.80;3.50;;;;;;;;;;5099923;28;20574;-84
2023/06/11 12:10:33;;;;;;;7.27;4.13;;;;;;;;;;5095964;28;20204;-85
2023/06/11 12:13:01;;;;;;;4.23;3.80;;;;;;;;;;5083528;28;20272;-86
2023/06/11 12:15:32;;;;;;;4.30;3.90;;;;;;;;;;5098895;28;20706;-85
2023/06/11 12:18:01;;;;;;;5.60;3.43;;;;;;;;;;5106729;28;20580;-85
2023/06/11 12:20:28;;;;;;;5.37;4.07;;;;;;;;;;5086322;28;20234;-84
2023/06/11 12:22:56;;;;;;;4.47;3.80;;;;;;;;;;5113224;28;20207;-84
2023/06/11 12:25:25;;;;;;;5.93;4.30;;;;;;;;;;5095523;28;20286;-84
2023/06/11 12:27:52;;;;;;;4.97;3.83;;;;;;;;;;5113370;28;20199;-83
2023/06/11 12:30:19;;;;;;;5.43;3.90;;;;;;;;;;5094814;28;20269;-83
2023/06/11 12:32:49;;;;;;;6.70;4.27;;;;;;;;;;5113223;28;20222;-83
2023/06/11 12:35:16;;;;;;;5.63;4.07;;;;;;;;;;5104024;28;20231;-83
2023/06/11 12:37:45;;;;;;;5.97;4.37;;;;;;;;;;5074916;28;20216;-82
2023/06/11 12:40:13;;;;;;;6.93;4.13;;;;;;;;;;5106419;28;20204;-81
2023/06/11 12:42:43;;;;;;;4.80;3.97;;;;;;;;;;5112773;28;20587;-79
2023/06/11 12:45:10;;;;;;;5.07;4.57;;;;;;;;;;5097329;28;20291;-79
2023/06/11 12:47:39;;;;;;;6.20;4.27;;;;;;;;;;5100734;28;20287;-80
2023/06/11 12:50:08;;;;;;;6.37;4.53;;;;;;;;;;5110523;28;20255;-81
2023/06/11 12:52:35;;;;;;;5.23;4.37;;;;;;;;;;5102459;28;20200;-81
2023/06/11 12:55:02;;;;;;;5.20;3.97;;;;;;;;;;5099235;28;20219;-81
2023/06/11 12:57:29;;;;;;;6.30;4.33;;;;;;;;;;5102385;28;20215;-80
2023/06/11 12:59:56;;;;;;;4.40;4.00;;;;;;;;;;5109333;28;20747;-80
2023/06/11 13:02:23;;;;;;;5.33;4.27;;;;;;;;;;5101358;28;20584;-81
2023/06/11 13:04:50;;;;;;;7.47;3.70;;;;;;;;;;5095436;28;20192;-80
2023/06/11 13:07:18;;;;;;;4.93;3.57;;;;;;;;;;5112411;28;20204;-82
2023/06/11 13:09:45;;;;;;;6.37;4.03;;;;;;;;;;5098753;28;20196;-80
2023/06/11 13:12:12;;;;;;;4.53;4.10;;;;;;;;;;5100504;28;20211;-81
2023/06/11 13:14:42;;;;;;;5.80;3.97;;;;;;;;;;5097116;28;20654;-81
2023/06/11 13:17:09;;;;;;;5.13;3.97;;;;;;;;;;5112303;28;20256;-80
2023/06/11 13:19:36;;;;;;;4.63;3.60;;;;;;;;;;5095079;28;20583;-80
2023/06/11 13:22:02;;;;;;;6.93;3.97;;;;;;;;;;5102143;28;20223;-81
2023/06/11 13:24:31;;;;;;;6.10;3.93;;;;;;;;;;5098469;28;20199;-81
2023/06/11 13:26:58;;;;;;;4.27;3.63;;;;;;;;;;5101624;28;20200;-82
2023/06/11 13:29:26;;;;;;;7.83;3.77;;;;;;;;;;5109528;28;20282;-82
2023/06/11 13:31:53;;;;;;;5.83;3.90;;;;;;;;;;5101185;28;20212;-84
2023/06/11 13:34:20;;;;;;;4.80;3.70;;;;;;;;;;5091780;28;20223;-82
2023/06/11 13:36:47;;;;;;;4.43;4.03;;;;;;;;;;5082434;28;20208;-83
2023/06/11 13:39:14;;;;;;;6.33;4.10;;;;;;;;;;5102243;28;20211;-83
2023/06/11 13:41:45;;;;;;;4.37;3.30;;;;;;;;;;5056867;28;20208;-82
2023/06/11 13:44:17;;;;;;;5.33;4.70;;;;;;;;;;5106147;28;20203;-81
2023/06/11 13:46:44;;;;;;;4.73;4.23;;;;;;;;;;5106620;28;20704;-82
2023/06/11 13:49:12;;;;;;;7.40;4.27;;;;;;;;;;5092188;28;20204;-82
2023/06/11 13:51:40;;;;;;;5.77;4.17;;;;;;;;;;5074060;28;20219;-82
2023/06/11 13:54:07;;;;;;;4.00;3.30;;;;;;;;;;5097453;28;20207;-82
2023/06/11 13:56:34;;;;;;;4.10;3.67;;;;;;;;;;5111243;28;20276;-83
2023/06/11 13:59:02;;;;;;;4.13;3.83;;;;;;;;;;5073831;28;20614;-82
2023/06/11 14:01:30;;;;;;;5.73;3.63;;;;;;;;;;5104166;28;20200;-81
2023/06/11 14:03:56;;;;;;;4.77;3.97;;;;;;;;;;5099527;28;20598;-81
2023/06/11 14:06:23;;;;;;;6.50;4.50;;;;;;;;;;5111690;28;20203;-80
2023/06/11 14:08:50;;;;;;;5.07;3.83;;;;;;;;;;5111543;28;20203;-82
2023/06/11 14:11:17;;;;;;;4.33;3.73;;;;;;;;;;5095978;28;20665;-82
2023/06/11 14:13:44;;;;;;;5.97;3.87;;;;;;;;;;5099062;28;20253;-81
2023/06/11 14:16:12;;;;;;;5.80;3.57;;;;;;;;;;5111033;28;20230;-81
2023/06/11 14:18:39;;;;;;;5.70;3.70;;;;;;;;;;5093747;28;20203;-81
2023/06/11 14:21:06;;;;;;;3.90;3.60;;;;;;;;;;5095667;28;20208;-81
2023/06/11 14:23:35;;;;;;;5.13;3.60;;;;;;;;;;5100436;28;20207;-81
2023/06/11 14:26:02;;;;;;;4.97;3.70;;;;;;;;;;5097683;28;20240;-81
2023/06/11 14:28:29;;;;;;;3.60;3.30;;;;;;;;;;5110498;28;20207;-81
2023/06/11 14:30:56;;;;;;;5.93;3.67;;;;;;;;;;5094973;28;20563;-80
2023/06/11 14:33:25;;;;;;;7.57;3.90;;;;;;;;;;5091031;28;20238;-82
2023/06/11 14:35:52;;;;;;;6.30;3.83;;;;;;;;;;5094753;28;20219;-82
2023/06/11 14:38:19;;;;;;;5.03;3.73;;;;;;;;;;5111667;28;20211;-80
2023/06/11 14:40:46;;;;;;;5.30;4.20;;;;;;;;;;5076205;28;20223;-81
2023/06/11 14:43:13;;;;;;;4.33;3.57;;;;;;;;;;5101736;28;20203;-81
2023/06/11 14:45:39;;;;;;;6.03;3.60;;;;;;;;;;5093360;28;20329;-81
2023/06/11 14:48:06;;;;;;;4.03;3.60;;;;;;;;;;5090608;28;20277;-80
2023/06/11 14:50:35;;;;;;;4.83;3.40;;;;;;;;;;5090889;28;20204;-81
2023/06/11 14:53:01;;;;;;;5.93;3.50;;;;;;;;;;5103067;28;20203;-82